Terminal Aerodrome Forecast
Issued by NWS

Home | Current Version | Previous Version | Graphics & Text | Print | Product List | Glossary On
Versions: 1 2 3 4 5 6 7 8 9 10 11 12 13 14 15 16 17 18
000
FTUS43 KABR 252100 AAB
TAFMBG
TAF AMD
KMBG 252153Z 2522/2618 30005KT P6SM SCT025
     FM252300 18007KT P6SM BKN250
     FM260600 31010KT P6SM BKN250=

USA.gov is the U.S. government's official web portal to all federal, state and local government web resources and services.